Time;durP1;ratioP1;P1;durP2;ratioP2;P2;SDS_P1;SDS_P2;PMS_P1;PMS_P2;Temp;Humidity;BMP_temperature;BMP_pressure;BME280_temperature;BME280_humidity;BME280_pressure;Samples;Min_cycle;Max_cycle;Signal;HPM_P1;HPM_P2
2022/12/22 03:26:48;;;;;;;18.02;9.88;;;;;;;6.72;57.98;100192.50;4894726;28;20044;-71
2022/12/22 03:29:14;;;;;;;20.70;10.85;;;;;;;6.69;58.41;100188.28;4915246;29;20074;-71
2022/12/22 03:31:39;;;;;;;19.95;10.70;;;;;;;6.73;58.18;100199.41;4908125;28;20039;-71
2022/12/22 03:34:05;;;;;;;20.52;10.82;;;;;;;6.66;58.21;100198.78;4891557;29;20036;-71
2022/12/22 03:36:31;;;;;;;21.65;11.45;;;;;;;6.34;59.30;100192.06;4877634;28;20147;-73
2022/12/22 03:38:56;;;;;;;19.10;11.30;;;;;;;6.58;58.95;100192.16;4892474;29;20577;-73
2022/12/22 03:46:50;;;;;;;21.88;11.65;;;;;;;6.36;59.48;100182.47;4895806;28;20620;-72
2022/12/22 03:49:15;;;;;;;26.30;13.38;;;;;;;6.39;59.48;100182.38;4916206;29;20143;-73
2022/12/22 03:51:46;;;;;;;24.90;12.48;;;;;;;6.52;59.11;100181.97;4913875;28;20032;-73
2022/12/22 03:54:14;;;;;;;23.40;12.57;;;;;;;6.65;58.47;100186.69;4914122;29;20090;-73
2022/12/22 03:56:40;;;;;;;23.90;12.60;;;;;;;6.44;59.13;100188.28;4910747;28;20043;-72
2022/12/22 03:59:06;;;;;;;25.38;13.13;;;;;;;6.41;59.59;100179.72;4895883;29;20024;-70
2022/12/22 04:01:35;;;;;;;27.45;13.95;;;;;;;6.50;59.00;100177.66;4896016;28;20048;-71
2022/12/22 04:04:01;;;;;;;26.70;13.02;;;;;;;6.66;58.75;100178.00;4891352;29;20031;-71
2022/12/22 04:06:26;;;;;;;23.20;12.45;;;;;;;6.64;58.56;100171.16;4894505;29;20691;-71
2022/12/22 04:08:51;;;;;;;33.83;14.95;;;;;;;6.64;58.56;100168.53;4893369;28;20514;-71
2022/12/22 04:14:02;;;;;;;25.60;13.88;;;;;;;6.73;58.23;100175.19;4898361;29;20052;-71
2022/12/22 04:16:28;;;;;;;27.58;13.10;;;;;;;6.60;58.44;100166.97;4911349;29;20044;-72
2022/12/22 04:18:55;;;;;;;28.25;13.30;;;;;;;6.45;58.97;100171.78;4894885;29;20100;-70
2022/12/22 04:21:20;;;;;;;27.20;14.02;;;;;;;6.71;58.04;100164.88;4893737;29;20056;-71
2022/12/22 04:23:45;;;;;;;29.95;14.02;;;;;;;6.77;58.15;100169.81;4893686;28;20708;-71
2022/12/22 04:26:11;;;;;;;29.40;14.10;;;;;;;6.74;57.81;100167.34;4909943;29;20248;-72
2022/12/22 04:28:36;;;;;;;33.72;14.60;;;;;;;6.36;58.89;100163.47;4891854;29;20182;-71
2022/12/22 04:31:02;;;;;;;26.67;14.20;;;;;;;6.68;58.40;100170.16;4894635;29;20032;-71
2022/12/22 04:33:27;;;;;;;29.80;15.18;;;;;;;6.68;58.23;100167.53;4908814;28;20198;-71
2022/12/22 04:35:53;;;;;;;26.60;13.25;;;;;;;6.70;58.15;100169.19;4911340;29;20662;-71
2022/12/22 04:38:18;;;;;;;28.45;12.57;;;;;;;6.76;58.10;100168.13;4915189;29;20085;-71
2022/12/22 04:40:44;;;;;;;26.45;13.68;;;;;;;6.79;57.87;100162.81;4916388;29;20116;-72
2022/12/22 04:43:09;;;;;;;28.17;13.55;;;;;;;6.79;58.13;100162.81;4897001;28;20111;-72
2022/12/22 04:45:34;;;;;;;33.95;14.50;;;;;;;6.80;57.87;100169.72;4913737;29;20027;-73
2022/12/22 04:48:00;;;;;;;31.08;13.77;;;;;;;6.79;57.96;100168.00;4915288;28;20150;-73
2022/12/22 04:50:26;;;;;;;29.73;14.55;;;;;;;6.79;57.98;100167.16;4899555;29;20046;-73
2022/12/22 04:52:51;;;;;;;30.45;13.50;;;;;;;6.61;58.14;100168.66;4886629;29;20047;-74
2022/12/22 04:55:17;;;;;;;29.90;14.63;;;;;;;6.67;58.16;100174.50;4894009;29;20642;-73
2022/12/22 04:57:42;;;;;;;28.95;14.68;;;;;;;6.72;57.90;100165.69;4900133;28;20219;-72
2022/12/22 05:00:09;;;;;;;35.00;15.30;;;;;;;6.48;58.48;100163.91;4914131;29;20044;-73
2022/12/22 05:02:34;;;;;;;27.60;13.27;;;;;;;6.67;58.00;100158.91;4911298;29;21360;-72
2022/12/22 05:05:00;;;;;;;30.45;13.77;;;;;;;6.64;57.69;100151.25;4913145;29;20516;-72
2022/12/22 05:07:25;;;;;;;30.75;13.73;;;;;;;6.63;57.74;100159.91;4898385;29;20154;-74
2022/12/22 05:09:51;;;;;;;24.90;13.10;;;;;;;6.57;57.95;100154.09;4913413;29;20040;-73
2022/12/22 05:15:00;;;;;;;27.58;14.02;;;;;;;6.56;57.84;100163.63;4912229;29;20028;-73
2022/12/22 05:17:25;;;;;;;25.50;12.00;;;;;;;6.53;57.86;100155.97;4912947;28;20051;-73
2022/12/22 05:19:51;;;;;;;28.35;13.43;;;;;;;6.59;57.81;100154.88;4886948;29;20052;-73
2022/12/22 05:22:16;;;;;;;28.40;12.52;;;;;;;6.60;57.71;100156.59;4909866;28;20047;-75
2022/12/22 05:24:42;;;;;;;25.10;13.90;;;;;;;6.57;58.03;100161.88;4911329;29;20047;-73
2022/12/22 05:27:09;;;;;;;29.85;12.80;;;;;;;6.60;57.78;100156.59;4898663;29;20139;-70
2022/12/22 05:29:35;;;;;;;30.65;14.95;;;;;;;6.54;57.75;100144.66;4911923;29;20561;-70
2022/12/22 05:32:00;;;;;;;36.15;14.45;;;;;;;6.49;57.73;100146.59;4926363;28;20039;-71
2022/12/22 05:34:26;;;;;;;27.95;14.27;;;;;;;6.56;57.75;100139.44;4896268;29;20043;-70
2022/12/22 05:36:51;;;;;;;29.48;14.23;;;;;;;6.54;57.77;100136.03;4911064;28;20285;-70
2022/12/22 05:39:18;;;;;;;30.83;13.07;;;;;;;6.53;57.68;100118.75;4912331;29;20039;-70
2022/12/22 05:41:43;;;;;;;24.67;12.20;;;;;;;6.46;57.49;100124.19;4908578;28;20036;-70
2022/12/22 05:44:09;;;;;;;35.92;16.50;;;;;;;6.43;57.33;100131.22;4912308;29;20039;-70
2022/12/22 05:46:34;;;;;;;34.47;16.45;;;;;;;6.36;57.29;100125.38;4909347;28;20035;-70
2022/12/22 05:48:59;;;;;;;30.50;14.65;;;;;;;6.27;57.83;100131.69;4910833;29;20032;-70
2022/12/22 05:51:25;;;;;;;32.88;14.32;;;;;;;6.27;57.86;100142.06;4913263;29;20379;-70
2022/12/22 05:53:50;;;;;;;30.90;14.50;;;;;;;6.24;58.24;100138.75;4909420;28;20051;-70
2022/12/22 05:56:16;;;;;;;30.85;15.57;;;;;;;6.35;57.95;100131.47;4912636;29;20047;-70
2022/12/22 05:58:41;;;;;;;29.63;14.60;;;;;;;6.37;57.96;100132.25;4908623;28;20067;-70
2022/12/22 06:01:07;;;;;;;35.47;16.05;;;;;;;6.37;57.93;100134.84;4911415;29;20204;-71
2022/12/22 06:03:32;;;;;;;34.42;16.05;;;;;;;6.36;57.71;100137.53;4905287;29;20044;-69
2022/12/22 06:05:58;;;;;;;36.60;15.23;;;;;;;6.31;58.10;100134.22;4922476;28;20485;-70
2022/12/22 06:08:25;;;;;;;31.65;15.80;;;;;;;6.27;58.13;100133.44;4911163;28;20075;-69
2022/12/22 06:10:53;;;;;;;34.65;16.05;;;;;;;6.21;58.33;100134.50;4911078;29;20054;-70
2022/12/22 06:13:19;;;;;;;40.65;17.20;;;;;;;6.32;57.94;100134.16;4909737;28;20083;-70
2022/12/22 06:15:44;;;;;;;35.92;16.02;;;;;;;6.31;57.89;100126.41;4925515;28;20539;-69
2022/12/22 06:18:10;;;;;;;33.60;16.02;;;;;;;6.16;57.57;100126.03;4897328;28;20075;-70
2022/12/22 06:20:36;;;;;;;32.75;14.30;;;;;;;6.02;57.15;100129.09;4892715;29;20103;-69
2022/12/22 06:23:01;;;;;;;27.10;14.10;;;;;;;5.87;57.48;100138.19;4902027;29;20048;-69
2022/12/22 06:25:26;;;;;;;29.98;12.98;;;;;;;5.75;57.38;100135.13;4912464;29;20114;-70
2022/12/22 06:27:52;;;;;;;30.70;13.68;;;;;;;5.70;57.50;100131.84;4907054;28;20083;-69
2022/12/22 06:30:17;;;;;;;30.83;13.93;;;;;;;5.48;58.02;100131.66;4910308;29;20040;-70
2022/12/22 06:32:43;;;;;;;26.65;13.70;;;;;;;5.45;57.19;100132.63;4909253;28;20263;-71
2022/12/22 06:35:10;;;;;;;29.40;14.48;;;;;;;5.34;57.47;100134.69;4910610;29;20586;-70
2022/12/22 06:37:36;;;;;;;28.17;14.48;;;;;;;5.28;57.54;100134.84;4895548;29;20039;-70
2022/12/22 06:40:01;;;;;;;25.38;12.68;;;;;;;5.22;57.09;100130.72;4912529;29;20563;-70
2022/12/22 06:45:11;;;;;;;35.22;16.42;;;;;;;5.13;58.49;100136.19;4910260;29;20091;-70
2022/12/22 06:47:37;;;;;;;33.33;14.10;;;;;;;5.19;58.26;100136.84;4908139;28;20047;-70
2022/12/22 06:50:02;;;;;;;34.42;14.35;;;;;;;5.20;58.07;100142.88;4917415;29;20055;-69
2022/12/22 06:52:28;;;;;;;38.47;16.38;;;;;;;4.85;59.74;100147.28;4921976;28;20707;-70
2022/12/22 06:54:53;;;;;;;43.92;17.20;;;;;;;5.09;58.51;100155.28;4909111;29;20524;-70
2022/12/22 06:57:19;;;;;;;33.22;15.02;;;;;;;5.12;58.15;100156.03;4897070;29;20513;-70
2022/12/22 06:59:44;;;;;;;33.85;14.20;;;;;;;5.04;58.63;100152.81;4923335;28;20035;-71
2022/12/22 07:02:10;;;;;;;33.40;13.95;;;;;;;5.05;57.87;100154.50;4905151;29;20423;-69
2022/12/22 07:04:36;;;;;;;37.15;14.73;;;;;;;5.03;57.95;100156.28;4890311;29;20186;-71
2022/12/22 07:07:01;;;;;;;30.33;13.55;;;;;;;4.99;57.55;100162.47;4897434;29;20470;-71
2022/12/22 07:09:27;;;;;;;34.45;14.95;;;;;;;4.86;58.56;100164.53;4911467;29;20043;-71
2022/12/22 07:11:52;;;;;;;35.60;14.50;;;;;;;4.89;58.81;100172.22;4909179;28;20043;-70
2022/12/22 07:14:18;;;;;;;36.03;15.70;;;;;;;4.94;58.52;100179.88;4927539;28;20146;-71
2022/12/22 07:16:45;;;;;;;27.70;13.57;;;;;;;4.83;57.67;100181.00;4912480;28;20039;-71
2022/12/22 07:19:11;;;;;;;25.13;12.02;;;;;;;4.69;57.62;100180.50;4910318;29;20032;-71
2022/12/22 07:21:36;;;;;;;33.50;14.48;;;;;;;4.65;57.59;100186.63;4907587;28;20027;-71
2022/12/22 07:24:02;;;;;;;29.02;13.70;;;;;;;4.59;57.67;100181.66;4902025;29;20506;-72
2022/12/22 07:26:28;;;;;;;28.17;14.18;;;;;;;4.57;57.98;100180.84;4900667;29;20071;-71
2022/12/22 07:28:53;;;;;;;30.38;14.00;;;;;;;4.53;57.58;100186.97;4911577;29;20728;-71
2022/12/22 07:31:18;;;;;;;147.85;21.83;;;;;;;4.36;58.86;100184.81;4910929;29;20500;-71
2022/12/22 07:33:44;;;;;;;99.57;19.48;;;;;;;4.43;58.36;100184.63;4896440;28;20549;-70
2022/12/22 07:36:12;;;;;;;36.47;14.85;;;;;;;4.47;58.06;100187.97;4895782;29;20103;-71
2022/12/22 07:38:40;;;;;;;46.45;16.20;;;;;;;4.43;58.17;100181.16;4911295;29;20043;-71
2022/12/22 07:42:43;;;;;;;42.83;14.50;;;;;;;4.45;57.61;100178.53;4914215;29;20040;-71
2022/12/22 07:43:54;;;;;;;48.30;16.13;;;;;;;4.22;58.89;100187.75;4911773;28;20051;-71
2022/12/22 07:46:19;;;;;;;56.85;18.10;;;;;;;4.47;58.69;100187.13;4915361;29;20032;-71
2022/12/22 07:51:34;;;;;;;51.63;19.52;;;;;;;4.79;58.69;100205.25;4914284;29;20696;-70
2022/12/22 07:54:00;;;;;;;77.10;21.67;;;;;;;4.88;58.38;100200.75;4910769;29;20106;-71
2022/12/22 07:56:26;;;;;;;63.60;22.98;;;;;;;4.92;58.24;100195.47;4914627;29;20217;-71
2022/12/22 07:58:51;;;;;;;50.83;18.70;;;;;;;4.93;58.42;100204.06;4898098;29;20043;-71
2022/12/22 08:01:17;;;;;;;43.08;16.73;;;;;;;4.85;58.13;100204.22;4910088;29;20032;-71
2022/12/22 08:03:42;;;;;;;27.73;12.82;;;;;;;4.89;58.17;100211.06;4909315;28;20048;-71
2022/12/22 08:06:08;;;;;;;45.00;16.48;;;;;;;4.83;58.26;100212.06;4914016;29;20047;-71
2022/12/22 08:08:33;;;;;;;45.25;16.02;;;;;;;4.86;58.10;100215.47;4911687;28;20058;-71
2022/12/22 08:11:02;;;;;;;39.67;15.88;;;;;;;4.79;58.82;100219.97;4914480;29;20030;-69
2022/12/22 08:13:28;;;;;;;35.33;15.75;;;;;;;4.84;59.04;100218.94;4895620;28;20050;-70
2022/12/22 08:15:53;;;;;;;31.10;13.32;;;;;;;4.99;58.67;100220.31;4894601;29;20414;-70
2022/12/22 08:18:19;;;;;;;34.65;13.75;;;;;;;5.05;58.44;100227.03;4908950;28;20417;-70
2022/12/22 08:20:51;;;;;;;40.55;14.68;;;;;;;5.03;58.34;100224.50;4913891;29;20176;-70
2022/12/22 08:23:17;;;;;;;52.65;14.18;;;;;;;4.93;58.76;100228.22;4910301;28;20962;-70
2022/12/22 08:25:44;;;;;;;43.03;14.20;;;;;;;5.01;58.83;100226.28;4909249;29;20133;-70
2022/12/22 08:28:11;;;;;;;61.55;14.88;;;;;;;4.90;58.82;100217.97;4914187;28;20051;-70
2022/12/22 08:30:37;;;;;;;43.17;12.88;;;;;;;5.09;58.40;100213.13;4912343;29;20039;-70
2022/12/22 08:33:03;;;;;;;37.90;14.27;;;;;;;4.51;60.06;100209.44;4912563;28;20572;-70
2022/12/22 08:35:28;;;;;;;35.35;12.05;;;;;;;4.28;60.30;100213.47;4913970;29;20561;-70
2022/12/22 08:37:54;;;;;;;30.33;11.43;;;;;;;4.54;59.50;100204.19;4911632;28;20388;-70
2022/12/22 08:40:22;;;;;;;32.42;12.70;;;;;;;4.73;59.22;100213.19;4914238;29;20040;-70
2022/12/22 08:42:51;;;;;;;27.67;11.45;;;;;;;4.76;59.00;100212.25;4907831;28;20081;-70
2022/12/22 08:45:17;;;;;;;35.30;12.93;;;;;;;4.87;58.45;100212.81;4911766;29;20040;-70
2022/12/22 08:47:42;;;;;;;31.77;11.23;;;;;;;5.05;58.91;100220.09;4925444;28;20583;-70
2022/12/22 08:50:08;;;;;;;31.40;10.98;;;;;;;5.46;59.48;100230.22;4913615;29;20036;-70
2022/12/22 08:52:34;;;;;;;31.58;11.35;;;;;;;5.98;58.85;100226.06;4902496;28;20044;-70
2022/12/22 08:54:59;;;;;;;30.23;12.20;;;;;;;6.31;57.66;100217.25;4893378;29;20043;-69
2022/12/22 08:57:24;;;;;;;35.83;13.70;;;;;;;6.36;56.43;100223.16;4898985;28;20542;-70
2022/12/22 08:59:50;;;;;;;28.08;12.90;;;;;;;6.46;56.26;100217.63;4910905;29;20154;-70
2022/12/22 09:02:15;;;;;;;24.48;12.18;;;;;;;5.86;57.07;100221.25;4904116;28;20051;-70
2022/12/22 09:04:41;;;;;;;30.15;12.45;;;;;;;5.54;57.16;100215.28;4890235;29;20059;-71
2022/12/22 09:07:06;;;;;;;24.73;10.70;;;;;;;5.21;58.04;100223.16;4897793;28;20039;-70
2022/12/22 09:09:33;;;;;;;25.73;9.88;;;;;;;5.29;58.04;100219.50;4911852;29;20626;-70
2022/12/22 09:11:59;;;;;;;30.33;11.95;;;;;;;5.28;57.89;100228.13;4925740;28;20123;-70
2022/12/22 09:14:25;;;;;;;26.33;10.88;;;;;;;4.68;59.18;100222.81;4911662;29;20035;-70
2022/12/22 09:16:51;;;;;;;24.65;10.80;;;;;;;4.95;58.63;100226.44;4910940;28;20040;-71
2022/12/22 09:19:17;;;;;;;24.45;11.15;;;;;;;5.41;57.68;100232.06;4912033;29;20131;-71
2022/12/22 09:21:43;;;;;;;24.38;9.73;;;;;;;5.42;57.32;100232.03;4907968;28;20047;-70
2022/12/22 09:24:09;;;;;;;26.23;11.48;;;;;;;5.49;57.17;100230.13;4892395;29;20067;-70
2022/12/22 09:26:35;;;;;;;29.17;10.65;;;;;;;5.40;57.41;100231.25;4898376;28;20040;-70
2022/12/22 09:29:00;;;;;;;21.60;10.60;;;;;;;5.18;57.81;100227.56;4910130;29;20059;-70
2022/12/22 09:31:26;;;;;;;23.15;9.55;;;;;;;5.09;58.41;100222.63;4895161;29;20032;-70
2022/12/22 09:33:52;;;;;;;30.48;11.25;;;;;;;5.11;58.49;100229.47;4908881;28;20044;-70
2022/12/22 09:36:23;;;;;;;24.00;9.68;;;;;;;5.17;58.33;100226.72;4912126;29;20042;-70
2022/12/22 09:38:49;;;;;;;27.45;10.82;;;;;;;5.57;57.84;100235.06;4886635;29;20454;-70
2022/12/22 09:41:18;;;;;;;32.92;10.45;;;;;;;5.27;58.16;100235.06;4908046;29;20036;-70
2022/12/22 09:43:44;;;;;;;37.38;10.43;;;;;;;4.60;59.90;100235.09;4920631;28;20138;-70
2022/12/22 09:46:30;;;;;;;37.03;11.50;;;;;;;4.92;58.91;100241.22;4910075;29;20146;-70
2022/12/22 09:48:56;;;;;;;32.53;11.52;;;;;;;5.05;58.37;100243.41;4910363;29;21372;-70
2022/12/22 09:51:23;;;;;;;30.00;10.32;;;;;;;5.03;58.27;100242.63;4904486;29;20471;-70
2022/12/22 09:53:53;;;;;;;27.65;10.90;;;;;;;4.67;59.22;100252.16;4915021;28;20086;-70
2022/12/22 09:56:18;;;;;;;32.60;10.48;;;;;;;4.98;58.84;100252.25;4911660;29;20035;-70
2022/12/22 09:58:45;;;;;;;24.40;9.48;;;;;;;5.01;58.77;100252.19;4923778;28;20099;-70
2022/12/22 10:01:29;;;;;;;32.53;11.18;;;;;;;4.48;60.05;100256.97;4907862;29;20126;-70
2022/12/22 10:04:13;;;;;;;23.67;8.98;;;;;;;4.80;58.86;100245.78;4908394;29;20177;-70
2022/12/22 10:06:57;;;;;;;29.23;8.07;;;;;;;4.54;59.55;100250.78;4905517;28;20126;-70
2022/12/22 10:09:25;;;;;;;24.60;9.63;;;;;;;4.39;59.73;100245.09;4913903;29;20094;-71
2022/12/22 10:11:56;;;;;;;21.27;8.75;;;;;;;4.34;59.00;100248.66;4908397;28;20065;-69
2022/12/22 10:14:32;;;;;;;19.53;9.23;;;;;;;4.13;59.75;100239.69;4911736;29;20502;-70
2022/12/22 10:17:27;;;;;;;22.38;8.68;;;;;;;4.21;59.09;100246.38;4910040;28;20094;-70
2022/12/22 10:20:05;;;;;;;21.00;7.30;;;;;;;4.06;60.42;100253.66;4925413;28;20046;-70
2022/12/22 10:22:34;;;;;;;22.60;8.40;;;;;;;4.31;59.32;100253.94;4909718;28;20790;-69
2022/12/22 10:25:01;;;;;;;23.63;8.07;;;;;;;4.27;59.89;100255.72;4923329;28;20031;-70
2022/12/22 10:27:31;;;;;;;18.73;6.78;;;;;;;4.86;58.85;100254.31;4906977;28;20134;-70
2022/12/22 10:30:18;;;;;;;30.50;9.60;;;;;;;5.31;57.79;100253.97;4909802;29;20612;-69
2022/12/22 10:33:00;;;;;;;22.23;8.32;;;;;;;6.06;55.77;100260.41;4908224;28;20050;-70
2022/12/22 10:35:26;;;;;;;27.30;7.13;;;;;;;6.40;55.64;100254.16;4910115;29;20050;-70
2022/12/22 10:37:51;;;;;;;18.55;7.18;;;;;;;6.29;55.07;100251.06;4909621;28;20052;-70
2022/12/22 10:40:21;;;;;;;22.35;7.10;;;;;;;6.06;54.70;100249.16;4911758;29;20127;-69
2022/12/22 10:42:51;;;;;;;20.45;6.88;;;;;;;6.06;55.29;100250.03;4907485;28;20393;-70
2022/12/22 10:45:24;;;;;;;18.48;6.95;;;;;;;5.41;55.14;100250.22;4909426;29;20398;-70
2022/12/22 10:47:52;;;;;;;13.93;5.82;;;;;;;5.64;55.36;100260.78;4907824;28;20722;-69
2022/12/22 10:50:19;;;;;;;19.42;6.57;;;;;;;5.67;55.30;100250.31;4910780;29;20144;-70
2022/12/22 10:52:56;;;;;;;19.40;6.72;;;;;;;5.70;55.00;100256.31;4923804;28;20035;-70
2022/12/22 10:55:27;;;;;;;16.25;5.80;;;;;;;5.57;55.71;100255.81;4903212;29;20059;-70
2022/12/22 10:58:14;;;;;;;12.63;5.00;;;;;;;4.68;58.26;100258.22;4908302;28;20257;-69
2022/12/22 11:00:40;;;;;;;17.83;6.78;;;;;;;4.83;57.68;100263.84;4909288;29;20299;-70
2022/12/22 11:03:10;;;;;;;15.50;5.28;;;;;;;4.52;58.66;100262.91;4909095;29;20047;-70
2022/12/22 11:05:36;;;;;;;13.18;5.38;;;;;;;4.18;59.74;100266.28;4909380;29;20039;-70
2022/12/22 11:08:19;;;;;;;15.40;6.65;;;;;;;4.08;59.25;100262.22;4907939;28;20115;-70
2022/12/22 11:10:53;;;;;;;15.65;5.85;;;;;;;4.21;59.38;100264.50;4908953;29;20039;-69
2022/12/22 11:13:30;;;;;;;13.45;5.45;;;;;;;4.75;57.49;100268.38;4909637;28;20087;-70
2022/12/22 11:15:58;;;;;;;19.63;7.90;;;;;;;4.28;59.31;100261.78;4908965;29;20083;-69
2022/12/22 11:19:06;;;;;;;17.63;6.88;;;;;;;4.62;58.48;100272.16;4894692;28;20082;-70
2022/12/22 11:21:37;;;;;;;18.70;7.03;;;;;;;4.76;57.79;100266.63;4889671;28;20036;-70
2022/12/22 11:24:15;;;;;;;16.20;6.65;;;;;;;4.73;57.51;100280.50;4911783;29;20043;-69
2022/12/22 11:27:14;;;;;;;19.88;7.07;;;;;;;4.74;58.03;100278.75;4922019;28;20047;-70
2022/12/22 11:29:48;;;;;;;17.13;6.72;;;;;;;4.19;59.10;100286.13;4907971;29;20048;-70
2022/12/22 11:32:51;;;;;;;18.25;6.15;;;;;;;4.20;60.15;100285.22;4910609;28;20051;-70
2022/12/22 11:35:35;;;;;;;11.02;5.13;;;;;;;4.64;58.52;100285.91;4916789;29;20070;-69
2022/12/22 11:38:08;;;;;;;19.42;7.72;;;;;;;4.78;57.84;100282.97;4875193;29;20161;-69
2022/12/22 11:40:39;;;;;;;19.27;7.43;;;;;;;5.04;58.03;100282.34;4888129;29;20043;-70
2022/12/22 11:43:12;;;;;;;20.67;6.93;;;;;;;5.53;57.06;100286.19;4901829;28;20066;-69
2022/12/22 11:46:02;;;;;;;14.25;6.28;;;;;;;4.93;57.83;100286.94;4904765;29;20032;-69
2022/12/22 11:48:51;;;;;;;14.55;5.80;;;;;;;4.87;58.81;100289.66;4906989;28;20220;-69
2022/12/22 11:51:32;;;;;;;15.68;6.30;;;;;;;4.59;59.35;100286.03;4907958;29;20063;-69
2022/12/22 11:54:13;;;;;;;11.73;5.78;;;;;;;5.11;58.01;100283.88;4907800;29;20082;-70
2022/12/22 11:56:43;;;;;;;17.65;6.00;;;;;;;5.08;58.15;100289.13;4903702;28;20118;-69
2022/12/22 11:59:44;;;;;;;22.50;5.43;;;;;;;5.40;56.71;100284.81;4909787;29;20035;-69
2022/12/22 12:02:47;;;;;;;17.05;6.18;;;;;;;5.14;57.58;100288.94;4895711;29;20056;-70
2022/12/22 12:05:28;;;;;;;22.17;4.97;;;;;;;4.95;58.18;100293.78;4911396;29;20778;-70
2022/12/22 12:07:58;;;;;;;16.92;6.03;;;;;;;5.49;57.38;100294.94;4910785;28;20237;-69
2022/12/22 12:10:30;;;;;;;15.15;6.97;;;;;;;5.75;56.86;100290.72;4912868;29;20043;-70
2022/12/22 12:13:05;;;;;;;13.35;6.20;;;;;;;5.18;57.65;100298.34;4912132;28;20056;-69
2022/12/22 12:15:39;;;;;;;16.30;5.70;;;;;;;6.19;55.62;100298.94;4911692;29;20036;-70
2022/12/22 12:18:26;;;;;;;20.55;7.03;;;;;;;5.94;56.19;100304.84;4912172;29;20055;-70
2022/12/22 12:21:04;;;;;;;17.17;4.88;;;;;;;5.18;57.91;100295.75;4929999;29;20067;-69
2022/12/22 12:23:41;;;;;;;23.63;6.00;;;;;;;5.02;58.01;100295.31;4927704;28;20052;-69
2022/12/22 12:26:29;;;;;;;14.02;5.53;;;;;;;5.52;56.59;100300.00;4934282;29;20231;-70
2022/12/22 12:28:57;;;;;;;12.10;6.07;;;;;;;5.42;56.95;100298.59;4911539;29;20054;-70
2022/12/22 12:31:31;;;;;;;16.27;5.32;;;;;;;5.51;56.69;100302.66;4912320;29;20028;-69
2022/12/22 12:34:00;;;;;;;10.70;5.22;;;;;;;5.40;56.20;100295.19;4930109;29;20422;-71
2022/12/22 12:36:46;;;;;;;11.07;4.15;;;;;;;5.58;56.13;100305.03;4929014;29;20058;-69
2022/12/22 12:39:18;;;;;;;17.33;4.63;;;;;;;5.43;56.34;100308.03;4933445;29;20184;-72
2022/12/22 12:41:53;;;;;;;10.77;4.85;;;;;;;5.44;55.98;100310.59;4943066;28;20051;-69
2022/12/22 12:44:23;;;;;;;14.15;5.43;;;;;;;5.83;55.11;100312.94;4931685;29;20132;-69
2022/12/22 12:46:49;;;;;;;10.90;4.20;;;;;;;5.84;55.23;100308.63;4928672;28;20868;-69
2022/12/22 12:49:33;;;;;;;15.05;3.75;;;;;;;5.28;56.53;100298.97;4933187;29;20063;-69
2022/12/22 12:52:11;;;;;;;9.95;3.22;;;;;;;5.56;55.68;100304.22;4928820;28;20404;-70
2022/12/22 12:54:39;;;;;;;11.07;4.25;;;;;;;6.08;54.93;100299.25;4926937;29;20037;-70
2022/12/22 12:57:28;;;;;;;15.27;5.32;;;;;;;6.26;54.22;100282.25;4928451;28;20047;-70
2022/12/22 12:59:56;;;;;;;21.13;6.45;;;;;;;6.14;54.42;100272.28;4922506;29;20040;-73
2022/12/22 13:02:30;;;;;;;12.52;4.63;;;;;;;6.32;54.30;100289.06;4920972;28;20055;-70
2022/12/22 13:05:11;;;;;;;8.73;5.40;;;;;;;6.72;53.95;100286.00;4921931;29;20204;-69
2022/12/22 13:08:04;;;;;;;12.43;4.82;;;;;;;6.50;54.01;100283.25;4917487;28;20056;-70
2022/12/22 13:10:30;;;;;;;12.95;4.05;;;;;;;6.66;53.02;100288.81;4923337;29;20651;-74
2022/12/22 13:12:59;;;;;;;8.77;3.65;;;;;;;6.77;52.89;100297.09;4916057;29;20043;-72
2022/12/22 13:15:36;;;;;;;9.23;3.22;;;;;;;7.14;51.18;100288.06;4913342;29;20054;-74
2022/12/22 13:18:08;;;;;;;12.75;3.67;;;;;;;7.64;50.63;100301.00;4910655;29;20134;-71
2022/12/22 13:20:35;;;;;;;17.63;3.50;;;;;;;7.56;50.18;100292.66;4900558;29;20047;-68
2022/12/22 13:23:08;;;;;;;9.98;2.65;;;;;;;7.74;49.92;100294.56;4923638;28;20054;-69
2022/12/22 13:25:57;;;;;;;7.68;1.88;;;;;;;7.32;50.53;100296.94;4923733;29;20289;-71
2022/12/22 13:28:25;;;;;;;9.02;2.83;;;;;;;7.04;51.07;100305.72;4925172;28;20046;-71
2022/12/22 13:30:58;;;;;;;12.63;2.22;;;;;;;6.24;52.48;100307.44;4924117;29;20023;-71
2022/12/22 13:33:29;;;;;;;9.43;2.20;;;;;;;6.53;51.84;100316.94;4918101;28;20320;-71
2022/12/22 13:35:56;;;;;;;6.63;2.38;;;;;;;5.84;54.23;100312.06;4924993;29;20321;-71
2022/12/22 13:38:29;;;;;;;7.85;2.22;;;;;;;5.91;53.83;100312.75;4923157;29;20142;-71
2022/12/22 13:40:57;;;;;;;9.85;2.95;;;;;;;5.69;54.71;100307.31;4923959;29;20118;-69
2022/12/22 13:43:25;;;;;;;7.00;2.15;;;;;;;5.86;54.44;100312.03;4925715;28;20039;-69
2022/12/22 13:45:56;;;;;;;7.68;2.88;;;;;;;5.28;55.53;100311.94;4925290;29;20024;-69
2022/12/22 13:48:44;;;;;;;8.43;3.47;;;;;;;5.35;55.28;100310.03;4908747;29;20055;-71
2022/12/22 13:51:32;;;;;;;6.88;2.95;;;;;;;5.19;55.94;100310.44;4928062;29;20039;-71
2022/12/22 13:54:11;;;;;;;8.68;2.97;;;;;;;5.36;55.68;100314.31;4915868;29;20336;-71
2022/12/22 13:56:47;;;;;;;8.73;3.65;;;;;;;5.54;55.22;100324.16;4916058;28;20117;-71
2022/12/22 13:59:32;;;;;;;9.00;2.90;;;;;;;5.63;55.02;100318.72;4926595;29;20106;-71
2022/12/22 14:02:00;;;;;;;12.00;4.18;;;;;;;5.69;54.36;100316.84;4922298;28;20052;-71
2022/12/22 14:04:26;;;;;;;9.27;3.63;;;;;;;5.43;55.42;100315.81;4910231;29;20099;-71
2022/12/22 14:06:53;;;;;;;9.43;2.53;;;;;;;5.29;55.52;100325.72;4925789;28;20051;-71
2022/12/22 14:09:25;;;;;;;9.20;3.53;;;;;;;4.89;56.86;100321.56;4927027;29;20036;-71
2022/12/22 14:11:56;;;;;;;9.85;4.13;;;;;;;4.79;56.63;100318.34;4925155;28;20043;-71
2022/12/22 14:14:25;;;;;;;14.50;5.18;;;;;;;4.97;56.21;100322.25;4928325;29;20078;-72
2022/12/22 14:16:54;;;;;;;14.68;5.70;;;;;;;4.58;57.73;100315.38;4938574;28;20262;-71
2022/12/22 14:19:21;;;;;;;9.85;4.32;;;;;;;5.08;56.31;100315.03;4929025;29;20244;-70
2022/12/22 14:21:51;;;;;;;9.68;3.35;;;;;;;4.77;57.24;100315.78;4923589;28;20615;-71
2022/12/22 14:24:26;;;;;;;7.90;3.63;;;;;;;4.71;57.60;100310.75;4926620;29;20039;-71
2022/12/22 14:26:52;;;;;;;14.60;4.55;;;;;;;4.55;57.90;100317.19;4923850;28;20040;-71
2022/12/22 14:29:24;;;;;;;7.30;4.00;;;;;;;4.66;57.24;100314.34;4920796;29;20047;-71
2022/12/22 14:31:55;;;;;;;16.05;4.47;;;;;;;4.79;57.23;100326.13;4923590;28;20054;-70
2022/12/22 14:34:29;;;;;;;16.65;3.35;;;;;;;5.03;56.73;100330.72;4939195;28;20039;-71
2022/12/22 14:36:55;;;;;;;9.80;2.63;;;;;;;4.83;57.21;100327.72;4924152;28;20099;-71
2022/12/22 14:39:24;;;;;;;14.02;3.85;;;;;;;4.86;57.11;100317.28;4925271;29;20070;-71
2022/12/22 14:41:56;;;;;;;7.53;3.80;;;;;;;4.68;57.77;100321.19;4925151;29;20253;-70
2022/12/22 14:44:28;;;;;;;16.33;4.47;;;;;;;4.84;57.64;100321.66;4918309;29;20094;-71
2022/12/22 14:47:11;;;;;;;12.88;3.60;;;;;;;4.74;57.79;100326.19;4907705;29;20063;-69
2022/12/22 14:49:51;;;;;;;6.28;3.00;;;;;;;4.70;58.08;100329.78;4893630;29;20039;-71
2022/12/22 14:52:23;;;;;;;18.45;4.45;;;;;;;4.69;58.12;100322.88;4892263;28;20044;-71
2022/12/22 14:54:52;;;;;;;6.55;3.03;;;;;;;4.77;57.78;100340.84;4881330;29;20038;-71
2022/12/22 14:57:39;;;;;;;15.20;4.07;;;;;;;4.81;57.74;100340.72;4912849;28;20040;-71
2022/12/22 15:00:25;;;;;;;14.70;4.63;;;;;;;5.11;56.56;100346.03;4912103;29;20028;-70
2022/12/22 15:02:54;;;;;;;15.65;5.13;;;;;;;4.63;58.31;100348.91;4914005;28;20048;-70
2022/12/22 15:05:31;;;;;;;10.90;4.18;;;;;;;4.72;58.06;100353.88;4905685;29;20103;-71
2022/12/22 15:07:58;;;;;;;15.25;3.15;;;;;;;5.01;57.64;100349.75;4931758;28;20043;-70
2022/12/22 15:10:26;;;;;;;8.43;3.00;;;;;;;4.45;59.02;100360.53;4923845;29;20055;-69
2022/12/22 15:12:57;;;;;;;16.77;2.85;;;;;;;5.02;57.45;100346.28;4925546;28;20031;-71
2022/12/22 15:15:24;;;;;;;5.43;2.28;;;;;;;4.88;57.67;100348.34;4926661;29;20063;-70
2022/12/22 15:17:52;;;;;;;12.35;2.97;;;;;;;4.93;57.34;100349.09;4924972;28;20777;-70